sensor_id;sensor_type;location;lat;lon;timestamp;P1;durP1;ratioP1;P2;durP2;ratioP2
73593;SDS011;62064;53.406;23.500;2022-09-16T00:00:50;3.08;;;1.70;;
73593;SDS011;62064;53.406;23.500;2022-09-16T00:03:35;4.20;;;2.15;;
73593;SDS011;62064;53.406;23.500;2022-09-16T00:06:01;4.20;;;2.08;;
73593;SDS011;62064;53.406;23.500;2022-09-16T00:08:28;3.63;;;1.67;;
73593;SDS011;62064;53.406;23.500;2022-09-16T00:10:58;6.35;;;1.85;;
73593;SDS011;62064;53.406;23.500;2022-09-16T00:13:25;4.43;;;1.92;;
73593;SDS011;62064;53.406;23.500;2022-09-16T00:15:53;5.93;;;2.05;;
73593;SDS011;62064;53.406;23.500;2022-09-16T00:18:19;3.30;;;1.63;;
73593;SDS011;62064;53.406;23.500;2022-09-16T00:20:46;3.20;;;1.60;;
73593;SDS011;62064;53.406;23.500;2022-09-16T00:23:15;3.45;;;1.73;;
73593;SDS011;62064;53.406;23.500;2022-09-16T00:25:41;3.10;;;1.60;;
73593;SDS011;62064;53.406;23.500;2022-09-16T00:28:07;2.92;;;1.60;;
73593;SDS011;62064;53.406;23.500;2022-09-16T00:30:34;4.53;;;1.63;;
73593;SDS011;62064;53.406;23.500;2022-09-16T00:33:01;3.67;;;1.67;;
73593;SDS011;62064;53.406;23.500;2022-09-16T00:35:27;4.05;;;2.00;;
73593;SDS011;62064;53.406;23.500;2022-09-16T00:37:56;3.95;;;1.92;;
73593;SDS011;62064;53.406;23.500;2022-09-16T00:42:49;4.25;;;1.90;;
73593;SDS011;62064;53.406;23.500;2022-09-16T00:45:23;3.50;;;1.80;;
73593;SDS011;62064;53.406;23.500;2022-09-16T00:47:56;4.88;;;1.55;;
73593;SDS011;62064;53.406;23.500;2022-09-16T00:50:33;3.70;;;1.75;;
73593;SDS011;62064;53.406;23.500;2022-09-16T00:53:06;4.03;;;1.55;;
73593;SDS011;62064;53.406;23.500;2022-09-16T00:55:36;3.95;;;1.75;;
73593;SDS011;62064;53.406;23.500;2022-09-16T00:58:11;4.53;;;1.70;;
73593;SDS011;62064;53.406;23.500;2022-09-16T01:00:44;5.65;;;1.80;;
73593;SDS011;62064;53.406;23.500;2022-09-16T01:03:10;4.82;;;1.70;;
73593;SDS011;62064;53.406;23.500;2022-09-16T01:05:36;4.18;;;1.70;;
73593;SDS011;62064;53.406;23.500;2022-09-16T01:08:03;3.20;;;1.77;;
73593;SDS011;62064;53.406;23.500;2022-09-16T01:10:31;5.72;;;1.70;;
73593;SDS011;62064;53.406;23.500;2022-09-16T01:13:00;3.35;;;1.60;;
73593;SDS011;62064;53.406;23.500;2022-09-16T01:16:19;3.15;;;1.58;;
73593;SDS011;62064;53.406;23.500;2022-09-16T01:18:46;4.00;;;1.77;;
73593;SDS011;62064;53.406;23.500;2022-09-16T01:21:43;3.67;;;1.40;;
73593;SDS011;62064;53.406;23.500;2022-09-16T01:40:48;3.83;;;2.33;;
73593;SDS011;62064;53.406;23.500;2022-09-16T01:46:11;3.22;;;1.73;;
73593;SDS011;62064;53.406;23.500;2022-09-16T01:48:43;3.22;;;1.50;;
73593;SDS011;62064;53.406;23.500;2022-09-16T01:54:04;3.35;;;1.40;;
73593;SDS011;62064;53.406;23.500;2022-09-16T01:59:14;3.88;;;1.92;;
73593;SDS011;62064;53.406;23.500;2022-09-16T02:01:49;4.38;;;1.80;;
73593;SDS011;62064;53.406;23.500;2022-09-16T02:04:34;5.47;;;1.90;;
73593;SDS011;62064;53.406;23.500;2022-09-16T02:07:09;4.15;;;2.20;;
73593;SDS011;62064;53.406;23.500;2022-09-16T02:09:39;4.88;;;2.17;;
73593;SDS011;62064;53.406;23.500;2022-09-16T02:12:14;5.43;;;2.30;;
73593;SDS011;62064;53.406;23.500;2022-09-16T02:14:49;4.63;;;2.10;;
73593;SDS011;62064;53.406;23.500;2022-09-16T02:17:22;3.92;;;1.80;;
73593;SDS011;62064;53.406;23.500;2022-09-16T02:22:31;3.55;;;2.20;;
73593;SDS011;62064;53.406;23.500;2022-09-16T02:25:03;3.38;;;2.00;;
73593;SDS011;62064;53.406;23.500;2022-09-16T02:27:32;4.95;;;1.73;;
73593;SDS011;62064;53.406;23.500;2022-09-16T02:30:02;3.58;;;1.70;;
73593;SDS011;62064;53.406;23.500;2022-09-16T02:32:32;4.43;;;2.03;;
73593;SDS011;62064;53.406;23.500;2022-09-16T02:35:03;4.68;;;1.80;;
73593;SDS011;62064;53.406;23.500;2022-09-16T02:37:43;3.25;;;1.60;;
73593;SDS011;62064;53.406;23.500;2022-09-16T02:40:15;3.78;;;1.80;;
73593;SDS011;62064;53.406;23.500;2022-09-16T02:42:48;4.13;;;1.70;;
73593;SDS011;62064;53.406;23.500;2022-09-16T02:45:14;4.15;;;1.88;;
73593;SDS011;62064;53.406;23.500;2022-09-16T02:50:26;2.90;;;1.58;;
73593;SDS011;62064;53.406;23.500;2022-09-16T02:53:01;5.07;;;1.88;;
73593;SDS011;62064;53.406;23.500;2022-09-16T02:55:38;4.50;;;1.80;;
73593;SDS011;62064;53.406;23.500;2022-09-16T02:58:15;2.90;;;1.50;;
73593;SDS011;62064;53.406;23.500;2022-09-16T03:00:42;5.53;;;1.95;;
73593;SDS011;62064;53.406;23.500;2022-09-16T03:03:12;6.55;;;1.90;;
73593;SDS011;62064;53.406;23.500;2022-09-16T03:08:26;3.13;;;1.55;;
73593;SDS011;62064;53.406;23.500;2022-09-16T03:10:53;3.88;;;1.42;;
73593;SDS011;62064;53.406;23.500;2022-09-16T03:13:27;3.88;;;1.73;;
73593;SDS011;62064;53.406;23.500;2022-09-16T03:16:07;3.05;;;1.50;;
73593;SDS011;62064;53.406;23.500;2022-09-16T03:18:55;4.13;;;1.85;;
73593;SDS011;62064;53.406;23.500;2022-09-16T03:26:55;3.38;;;1.80;;
73593;SDS011;62064;53.406;23.500;2022-09-16T03:29:29;2.22;;;1.50;;
73593;SDS011;62064;53.406;23.500;2022-09-16T03:31:57;3.63;;;1.67;;
73593;SDS011;62064;53.406;23.500;2022-09-16T03:34:28;3.53;;;1.80;;
73593;SDS011;62064;53.406;23.500;2022-09-16T03:37:05;4.55;;;1.83;;
73593;SDS011;62064;53.406;23.500;2022-09-16T03:39:34;3.10;;;1.60;;
73593;SDS011;62064;53.406;23.500;2022-09-16T03:42:02;4.28;;;1.77;;
73593;SDS011;62064;53.406;23.500;2022-09-16T03:44:30;3.85;;;1.60;;
73593;SDS011;62064;53.406;23.500;2022-09-16T03:47:01;5.78;;;2.13;;
73593;SDS011;62064;53.406;23.500;2022-09-16T03:49:29;3.88;;;1.80;;
73593;SDS011;62064;53.406;23.500;2022-09-16T03:51:55;4.30;;;1.90;;
73593;SDS011;62064;53.406;23.500;2022-09-16T03:54:21;3.92;;;1.83;;
73593;SDS011;62064;53.406;23.500;2022-09-16T03:56:48;3.97;;;2.22;;
73593;SDS011;62064;53.406;23.500;2022-09-16T03:59:15;4.40;;;1.90;;
73593;SDS011;62064;53.406;23.500;2022-09-16T04:01:42;4.30;;;2.00;;
73593;SDS011;62064;53.406;23.500;2022-09-16T04:04:08;3.40;;;1.80;;
73593;SDS011;62064;53.406;23.500;2022-09-16T04:06:35;4.60;;;1.95;;
73593;SDS011;62064;53.406;23.500;2022-09-16T04:09:02;5.18;;;1.90;;
73593;SDS011;62064;53.406;23.500;2022-09-16T04:11:31;5.60;;;2.08;;
73593;SDS011;62064;53.406;23.500;2022-09-16T04:13:57;3.42;;;1.98;;
73593;SDS011;62064;53.406;23.500;2022-09-16T04:16:24;5.85;;;2.08;;
73593;SDS011;62064;53.406;23.500;2022-09-16T04:18:51;6.05;;;2.33;;
73593;SDS011;62064;53.406;23.500;2022-09-16T04:21:17;3.65;;;1.85;;
73593;SDS011;62064;53.406;23.500;2022-09-16T04:23:43;4.70;;;2.28;;
73593;SDS011;62064;53.406;23.500;2022-09-16T04:26:09;6.55;;;2.08;;
73593;SDS011;62064;53.406;23.500;2022-09-16T04:28:36;4.95;;;2.00;;
73593;SDS011;62064;53.406;23.500;2022-09-16T04:31:05;4.80;;;2.30;;
73593;SDS011;62064;53.406;23.500;2022-09-16T04:33:33;4.68;;;2.65;;
73593;SDS011;62064;53.406;23.500;2022-09-16T04:36:08;4.70;;;2.45;;
73593;SDS011;62064;53.406;23.500;2022-09-16T04:38:43;4.90;;;2.35;;
73593;SDS011;62064;53.406;23.500;2022-09-16T04:41:12;5.40;;;2.60;;
73593;SDS011;62064;53.406;23.500;2022-09-16T04:43:41;3.90;;;2.35;;
73593;SDS011;62064;53.406;23.500;2022-09-16T04:46:07;4.68;;;2.47;;
73593;SDS011;62064;53.406;23.500;2022-09-16T04:48:34;6.15;;;2.33;;
73593;SDS011;62064;53.406;23.500;2022-09-16T04:51:01;5.28;;;2.63;;
73593;SDS011;62064;53.406;23.500;2022-09-16T04:53:33;4.30;;;2.05;;
73593;SDS011;62064;53.406;23.500;2022-09-16T04:56:07;4.15;;;2.10;;
73593;SDS011;62064;53.406;23.500;2022-09-16T04:58:42;3.90;;;2.10;;
73593;SDS011;62064;53.406;23.500;2022-09-16T05:01:11;3.75;;;1.90;;
73593;SDS011;62064;53.406;23.500;2022-09-16T05:03:47;4.40;;;2.10;;
73593;SDS011;62064;53.406;23.500;2022-09-16T05:06:16;5.05;;;2.30;;
73593;SDS011;62064;53.406;23.500;2022-09-16T05:08:46;4.25;;;2.22;;
73593;SDS011;62064;53.406;23.500;2022-09-16T05:11:13;4.57;;;2.30;;
73593;SDS011;62064;53.406;23.500;2022-09-16T05:13:51;4.47;;;2.05;;
73593;SDS011;62064;53.406;23.500;2022-09-16T05:16:17;5.68;;;2.40;;
73593;SDS011;62064;53.406;23.500;2022-09-16T05:18:45;5.05;;;2.40;;
73593;SDS011;62064;53.406;23.500;2022-09-16T05:21:13;4.65;;;2.40;;
73593;SDS011;62064;53.406;23.500;2022-09-16T05:23:41;4.90;;;2.45;;
73593;SDS011;62064;53.406;23.500;2022-09-16T05:26:09;5.45;;;2.70;;
73593;SDS011;62064;53.406;23.500;2022-09-16T05:28:45;6.03;;;2.17;;
73593;SDS011;62064;53.406;23.500;2022-09-16T05:31:13;4.68;;;2.45;;
73593;SDS011;62064;53.406;23.500;2022-09-16T05:33:53;5.13;;;2.13;;
73593;SDS011;62064;53.406;23.500;2022-09-16T05:36:26;5.63;;;2.50;;
73593;SDS011;62064;53.406;23.500;2022-09-16T05:38:53;6.35;;;2.53;;
73593;SDS011;62064;53.406;23.500;2022-09-16T05:41:21;5.97;;;2.63;;
73593;SDS011;62064;53.406;23.500;2022-09-16T05:43:48;4.85;;;2.10;;
73593;SDS011;62064;53.406;23.500;2022-09-16T05:46:18;5.60;;;2.70;;
73593;SDS011;62064;53.406;23.500;2022-09-16T05:48:47;9.48;;;2.80;;
73593;SDS011;62064;53.406;23.500;2022-09-16T05:51:16;4.20;;;2.40;;
73593;SDS011;62064;53.406;23.500;2022-09-16T05:53:45;5.25;;;2.20;;
73593;SDS011;62064;53.406;23.500;2022-09-16T05:56:19;4.70;;;2.15;;
73593;SDS011;62064;53.406;23.500;2022-09-16T05:58:51;7.70;;;3.00;;
73593;SDS011;62064;53.406;23.500;2022-09-16T06:01:19;6.45;;;2.58;;
73593;SDS011;62064;53.406;23.500;2022-09-16T06:03:47;5.22;;;2.35;;
73593;SDS011;62064;53.406;23.500;2022-09-16T06:06:23;4.90;;;2.00;;
73593;SDS011;62064;53.406;23.500;2022-09-16T06:08:52;6.18;;;2.00;;
73593;SDS011;62064;53.406;23.500;2022-09-16T06:11:21;5.72;;;2.60;;
73593;SDS011;62064;53.406;23.500;2022-09-16T06:13:52;4.70;;;2.33;;
73593;SDS011;62064;53.406;23.500;2022-09-16T06:16:26;4.43;;;2.03;;
73593;SDS011;62064;53.406;23.500;2022-09-16T06:18:54;5.93;;;2.38;;
73593;SDS011;62064;53.406;23.500;2022-09-16T06:21:22;4.95;;;2.35;;
73593;SDS011;62064;53.406;23.500;2022-09-16T06:23:52;5.30;;;2.38;;
73593;SDS011;62064;53.406;23.500;2022-09-16T06:26:20;5.18;;;2.30;;
73593;SDS011;62064;53.406;23.500;2022-09-16T06:28:51;5.45;;;2.53;;
73593;SDS011;62064;53.406;23.500;2022-09-16T06:31:23;9.10;;;2.10;;
73593;SDS011;62064;53.406;23.500;2022-09-16T06:33:52;4.18;;;1.95;;
73593;SDS011;62064;53.406;23.500;2022-09-16T06:36:22;7.45;;;2.10;;
73593;SDS011;62064;53.406;23.500;2022-09-16T06:38:56;3.72;;;1.80;;
73593;SDS011;62064;53.406;23.500;2022-09-16T06:41:27;6.18;;;2.13;;
73593;SDS011;62064;53.406;23.500;2022-09-16T06:43:53;6.00;;;2.33;;
73593;SDS011;62064;53.406;23.500;2022-09-16T06:46:21;6.78;;;2.30;;
73593;SDS011;62064;53.406;23.500;2022-09-16T06:48:49;3.15;;;1.95;;
73593;SDS011;62064;53.406;23.500;2022-09-16T06:53:50;5.97;;;2.05;;
73593;SDS011;62064;53.406;23.500;2022-09-16T06:56:18;4.03;;;1.67;;
73593;SDS011;62064;53.406;23.500;2022-09-16T06:58:46;5.55;;;1.77;;
73593;SDS011;62064;53.406;23.500;2022-09-16T07:01:16;4.57;;;1.98;;
73593;SDS011;62064;53.406;23.500;2022-09-16T07:03:45;5.85;;;1.80;;
73593;SDS011;62064;53.406;23.500;2022-09-16T07:06:17;5.00;;;1.80;;
73593;SDS011;62064;53.406;23.500;2022-09-16T07:08:48;8.05;;;1.90;;
73593;SDS011;62064;53.406;23.500;2022-09-16T07:11:16;4.40;;;1.63;;
73593;SDS011;62064;53.406;23.500;2022-09-16T07:13:46;5.45;;;1.90;;
73593;SDS011;62064;53.406;23.500;2022-09-16T07:16:15;5.82;;;1.90;;
73593;SDS011;62064;53.406;23.500;2022-09-16T07:18:43;4.30;;;2.00;;
73593;SDS011;62064;53.406;23.500;2022-09-16T07:21:11;5.90;;;2.15;;
73593;SDS011;62064;53.406;23.500;2022-09-16T07:23:44;6.30;;;1.80;;
73593;SDS011;62064;53.406;23.500;2022-09-16T07:26:18;4.60;;;1.70;;
73593;SDS011;62064;53.406;23.500;2022-09-16T07:28:46;4.70;;;2.00;;
73593;SDS011;62064;53.406;23.500;2022-09-16T07:31:16;4.70;;;1.80;;
73593;SDS011;62064;53.406;23.500;2022-09-16T07:33:47;4.78;;;2.22;;
73593;SDS011;62064;53.406;23.500;2022-09-16T07:36:19;6.57;;;2.40;;
73593;SDS011;62064;53.406;23.500;2022-09-16T07:38:47;4.45;;;1.80;;
73593;SDS011;62064;53.406;23.500;2022-09-16T07:41:17;6.30;;;2.15;;
73593;SDS011;62064;53.406;23.500;2022-09-16T07:43:47;4.57;;;1.95;;
73593;SDS011;62064;53.406;23.500;2022-09-16T07:46:16;7.72;;;2.45;;
73593;SDS011;62064;53.406;23.500;2022-09-16T07:48:47;7.13;;;2.03;;
73593;SDS011;62064;53.406;23.500;2022-09-16T07:51:15;4.80;;;1.83;;
73593;SDS011;62064;53.406;23.500;2022-09-16T07:53:46;8.52;;;1.95;;
73593;SDS011;62064;53.406;23.500;2022-09-16T07:56:19;7.38;;;1.77;;
73593;SDS011;62064;53.406;23.500;2022-09-16T07:58:47;7.22;;;2.00;;
73593;SDS011;62064;53.406;23.500;2022-09-16T08:01:14;6.57;;;1.70;;
73593;SDS011;62064;53.406;23.500;2022-09-16T08:03:41;5.25;;;1.70;;
73593;SDS011;62064;53.406;23.500;2022-09-16T08:08:45;5.45;;;1.75;;
73593;SDS011;62064;53.406;23.500;2022-09-16T08:11:13;4.82;;;1.88;;
73593;SDS011;62064;53.406;23.500;2022-09-16T08:13:40;7.13;;;1.70;;
73593;SDS011;62064;53.406;23.500;2022-09-16T08:16:12;9.23;;;1.83;;
73593;SDS011;62064;53.406;23.500;2022-09-16T08:18:41;5.20;;;1.80;;
73593;SDS011;62064;53.406;23.500;2022-09-16T08:21:09;5.43;;;2.33;;
73593;SDS011;62064;53.406;23.500;2022-09-16T08:23:48;5.15;;;2.63;;
73593;SDS011;62064;53.406;23.500;2022-09-16T08:26:15;5.68;;;1.77;;
73593;SDS011;62064;53.406;23.500;2022-09-16T08:28:43;7.38;;;1.80;;
73593;SDS011;62064;53.406;23.500;2022-09-16T08:31:10;5.75;;;1.60;;
73593;SDS011;62064;53.406;23.500;2022-09-16T08:33:40;3.97;;;1.73;;
73593;SDS011;62064;53.406;23.500;2022-09-16T08:36:17;6.53;;;1.75;;
73593;SDS011;62064;53.406;23.500;2022-09-16T08:38:48;5.00;;;1.50;;
73593;SDS011;62064;53.406;23.500;2022-09-16T08:41:24;4.82;;;1.75;;
73593;SDS011;62064;53.406;23.500;2022-09-16T08:46:57;8.77;;;2.85;;
73593;SDS011;62064;53.406;23.500;2022-09-16T08:49:31;7.03;;;2.67;;
73593;SDS011;62064;53.406;23.500;2022-09-16T08:52:03;7.10;;;2.55;;
73593;SDS011;62064;53.406;23.500;2022-09-16T08:54:41;7.85;;;3.55;;
73593;SDS011;62064;53.406;23.500;2022-09-16T08:57:13;8.77;;;3.35;;
73593;SDS011;62064;53.406;23.500;2022-09-16T08:59:47;8.15;;;2.75;;
73593;SDS011;62064;53.406;23.500;2022-09-16T09:05:13;5.70;;;2.60;;
73593;SDS011;62064;53.406;23.500;2022-09-16T09:08:04;7.80;;;3.08;;
73593;SDS011;62064;53.406;23.500;2022-09-16T09:43:49;3.88;;;1.42;;
73593;SDS011;62064;53.406;23.500;2022-09-16T09:46:44;6.65;;;1.98;;
73593;SDS011;62064;53.406;23.500;2022-09-16T09:49:22;7.15;;;2.03;;
73593;SDS011;62064;53.406;23.500;2022-09-16T09:51:55;4.95;;;2.00;;
73593;SDS011;62064;53.406;23.500;2022-09-16T09:54:28;5.60;;;2.40;;
73593;SDS011;62064;53.406;23.500;2022-09-16T09:59:31;5.22;;;2.42;;
73593;SDS011;62064;53.406;23.500;2022-09-16T10:02:02;4.82;;;2.53;;
73593;SDS011;62064;53.406;23.500;2022-09-16T10:04:39;5.18;;;2.35;;
73593;SDS011;62064;53.406;23.500;2022-09-16T10:07:05;5.68;;;2.47;;
73593;SDS011;62064;53.406;23.500;2022-09-16T10:09:35;6.32;;;2.20;;
73593;SDS011;62064;53.406;23.500;2022-09-16T10:12:10;6.85;;;2.90;;
73593;SDS011;62064;53.406;23.500;2022-09-16T10:14:36;8.15;;;2.90;;
73593;SDS011;62064;53.406;23.500;2022-09-16T10:17:04;4.97;;;2.35;;
73593;SDS011;62064;53.406;23.500;2022-09-16T10:19:57;6.78;;;2.85;;
73593;SDS011;62064;53.406;23.500;2022-09-16T10:22:30;6.00;;;2.35;;
73593;SDS011;62064;53.406;23.500;2022-09-16T10:25:00;5.97;;;2.33;;
73593;SDS011;62064;53.406;23.500;2022-09-16T10:27:31;8.77;;;2.65;;
73593;SDS011;62064;53.406;23.500;2022-09-16T10:30:03;6.05;;;2.40;;
73593;SDS011;62064;53.406;23.500;2022-09-16T10:34:56;6.70;;;2.33;;
73593;SDS011;62064;53.406;23.500;2022-09-16T10:37:22;6.63;;;2.60;;
73593;SDS011;62064;53.406;23.500;2022-09-16T10:39:53;9.65;;;2.60;;
73593;SDS011;62064;53.406;23.500;2022-09-16T10:42:26;8.80;;;2.95;;
73593;SDS011;62064;53.406;23.500;2022-09-16T10:45:00;9.30;;;2.53;;
73593;SDS011;62064;53.406;23.500;2022-09-16T10:47:40;6.05;;;2.35;;
73593;SDS011;62064;53.406;23.500;2022-09-16T10:50:16;5.07;;;2.00;;
73593;SDS011;62064;53.406;23.500;2022-09-16T10:52:45;5.68;;;2.10;;
73593;SDS011;62064;53.406;23.500;2022-09-16T10:55:30;8.38;;;2.50;;
73593;SDS011;62064;53.406;23.500;2022-09-16T10:58:08;6.13;;;2.40;;
73593;SDS011;62064;53.406;23.500;2022-09-16T11:00:46;7.07;;;2.28;;
73593;SDS011;62064;53.406;23.500;2022-09-16T11:06:31;5.47;;;1.83;;
73593;SDS011;62064;53.406;23.500;2022-09-16T11:14:56;5.38;;;2.22;;
73593;SDS011;62064;53.406;23.500;2022-09-16T11:17:41;6.40;;;2.20;;
73593;SDS011;62064;53.406;23.500;2022-09-16T11:20:25;7.28;;;2.28;;
73593;SDS011;62064;53.406;23.500;2022-09-16T11:31:45;4.63;;;2.08;;
73593;SDS011;62064;53.406;23.500;2022-09-16T11:36:37;4.20;;;2.00;;
73593;SDS011;62064;53.406;23.500;2022-09-16T11:39:27;6.18;;;1.90;;
73593;SDS011;62064;53.406;23.500;2022-09-16T11:55:35;5.05;;;1.80;;
73593;SDS011;62064;53.406;23.500;2022-09-16T11:58:17;4.38;;;1.60;;
73593;SDS011;62064;53.406;23.500;2022-09-16T12:00:50;7.15;;;1.73;;
73593;SDS011;62064;53.406;23.500;2022-09-16T12:05:55;5.68;;;1.98;;
73593;SDS011;62064;53.406;23.500;2022-09-16T12:11:29;5.15;;;2.10;;
73593;SDS011;62064;53.406;23.500;2022-09-16T12:14:27;4.32;;;2.08;;
73593;SDS011;62064;53.406;23.500;2022-09-16T12:17:03;6.45;;;2.05;;
73593;SDS011;62064;53.406;23.500;2022-09-16T12:19:39;4.22;;;2.00;;
73593;SDS011;62064;53.406;23.500;2022-09-16T12:22:16;3.70;;;1.70;;
73593;SDS011;62064;53.406;23.500;2022-09-16T12:25:08;3.53;;;1.83;;
73593;SDS011;62064;53.406;23.500;2022-09-16T12:30:17;4.68;;;2.22;;
73593;SDS011;62064;53.406;23.500;2022-09-16T12:37:57;4.82;;;1.80;;
73593;SDS011;62064;53.406;23.500;2022-09-16T12:40:24;4.78;;;1.70;;
73593;SDS011;62064;53.406;23.500;2022-09-16T12:43:16;6.45;;;1.70;;
73593;SDS011;62064;53.406;23.500;2022-09-16T12:57:04;6.43;;;2.17;;
73593;SDS011;62064;53.406;23.500;2022-09-16T13:02:27;7.57;;;2.20;;
73593;SDS011;62064;53.406;23.500;2022-09-16T13:05:00;8.10;;;2.40;;
73593;SDS011;62064;53.406;23.500;2022-09-16T13:07:36;6.15;;;2.33;;
73593;SDS011;62064;53.406;23.500;2022-09-16T13:10:05;7.70;;;1.95;;
73593;SDS011;62064;53.406;23.500;2022-09-16T13:12:33;7.55;;;2.40;;
73593;SDS011;62064;53.406;23.500;2022-09-16T13:15:02;6.05;;;2.15;;
73593;SDS011;62064;53.406;23.500;2022-09-16T13:17:34;4.70;;;2.10;;
73593;SDS011;62064;53.406;23.500;2022-09-16T13:20:46;5.43;;;2.25;;
73593;SDS011;62064;53.406;23.500;2022-09-16T13:23:00;8.48;;;1.90;;
73593;SDS011;62064;53.406;23.500;2022-09-16T13:28:23;5.70;;;1.70;;
73593;SDS011;62064;53.406;23.500;2022-09-16T13:30:53;3.78;;;1.90;;
73593;SDS011;62064;53.406;23.500;2022-09-16T13:33:21;5.78;;;1.75;;
73593;SDS011;62064;53.406;23.500;2022-09-16T13:36:11;4.25;;;1.90;;
73593;SDS011;62064;53.406;23.500;2022-09-16T13:38:45;5.57;;;1.80;;
73593;SDS011;62064;53.406;23.500;2022-09-16T13:41:27;6.15;;;1.98;;
73593;SDS011;62064;53.406;23.500;2022-09-16T13:44:00;3.92;;;1.80;;
73593;SDS011;62064;53.406;23.500;2022-09-16T13:46:36;4.32;;;1.80;;
73593;SDS011;62064;53.406;23.500;2022-09-16T13:51:39;5.40;;;1.90;;
73593;SDS011;62064;53.406;23.500;2022-09-16T13:54:21;5.22;;;1.70;;
73593;SDS011;62064;53.406;23.500;2022-09-16T14:15:15;4.68;;;1.70;;
73593;SDS011;62064;53.406;23.500;2022-09-16T14:17:52;5.50;;;2.20;;
73593;SDS011;62064;53.406;23.500;2022-09-16T14:20:22;5.07;;;1.77;;
73593;SDS011;62064;53.406;23.500;2022-09-16T14:23:04;4.30;;;1.70;;
73593;SDS011;62064;53.406;23.500;2022-09-16T14:25:44;5.22;;;1.67;;
73593;SDS011;62064;53.406;23.500;2022-09-16T14:30:55;3.92;;;1.90;;
73593;SDS011;62064;53.406;23.500;2022-09-16T14:33:25;6.22;;;1.83;;
73593;SDS011;62064;53.406;23.500;2022-09-16T14:36:07;3.53;;;1.52;;
73593;SDS011;62064;53.406;23.500;2022-09-16T14:38:42;6.00;;;1.70;;
73593;SDS011;62064;53.406;23.500;2022-09-16T14:41:21;7.10;;;2.33;;
73593;SDS011;62064;53.406;23.500;2022-09-16T14:46:19;4.70;;;1.70;;
73593;SDS011;62064;53.406;23.500;2022-09-16T14:48:45;6.72;;;2.10;;
73593;SDS011;62064;53.406;23.500;2022-09-16T14:51:20;6.93;;;1.95;;
73593;SDS011;62064;53.406;23.500;2022-09-16T14:53:54;5.38;;;2.08;;
73593;SDS011;62064;53.406;23.500;2022-09-16T14:56:22;4.85;;;2.10;;
73593;SDS011;62064;53.406;23.500;2022-09-16T14:58:49;5.13;;;1.90;;
73593;SDS011;62064;53.406;23.500;2022-09-16T15:01:25;3.83;;;2.05;;
73593;SDS011;62064;53.406;23.500;2022-09-16T15:06:23;4.43;;;2.15;;
73593;SDS011;62064;53.406;23.500;2022-09-16T15:09:02;4.55;;;1.92;;
73593;SDS011;62064;53.406;23.500;2022-09-16T15:11:45;4.00;;;1.77;;
73593;SDS011;62064;53.406;23.500;2022-09-16T15:14:16;2.88;;;1.50;;
73593;SDS011;62064;53.406;23.500;2022-09-16T15:16:44;3.40;;;1.45;;
73593;SDS011;62064;53.406;23.500;2022-09-16T15:22:15;4.85;;;2.10;;
73593;SDS011;62064;53.406;23.500;2022-09-16T15:24:49;3.47;;;1.73;;
73593;SDS011;62064;53.406;23.500;2022-09-16T15:27:21;4.18;;;1.70;;
73593;SDS011;62064;53.406;23.500;2022-09-16T15:29:52;4.25;;;1.95;;
73593;SDS011;62064;53.406;23.500;2022-09-16T15:32:22;3.80;;;1.77;;
73593;SDS011;62064;53.406;23.500;2022-09-16T15:37:47;4.10;;;1.88;;
73593;SDS011;62064;53.406;23.500;2022-09-16T15:43:00;5.25;;;1.90;;
73593;SDS011;62064;53.406;23.500;2022-09-16T15:47:57;4.40;;;1.73;;
73593;SDS011;62064;53.406;23.500;2022-09-16T15:50:27;3.83;;;1.70;;
73593;SDS011;62064;53.406;23.500;2022-09-16T15:53:05;3.70;;;1.77;;
73593;SDS011;62064;53.406;23.500;2022-09-16T15:56:01;3.95;;;1.85;;
73593;SDS011;62064;53.406;23.500;2022-09-16T15:58:45;5.07;;;1.92;;
73593;SDS011;62064;53.406;23.500;2022-09-16T16:04:12;4.65;;;1.73;;
73593;SDS011;62064;53.406;23.500;2022-09-16T16:06:50;5.47;;;2.20;;
73593;SDS011;62064;53.406;23.500;2022-09-16T16:11:56;3.38;;;1.98;;
73593;SDS011;62064;53.406;23.500;2022-09-16T16:14:28;4.97;;;1.90;;
73593;SDS011;62064;53.406;23.500;2022-09-16T16:19:53;5.15;;;2.40;;
73593;SDS011;62064;53.406;23.500;2022-09-16T16:22:20;5.05;;;2.42;;
73593;SDS011;62064;53.406;23.500;2022-09-16T16:24:47;5.38;;;2.63;;
73593;SDS011;62064;53.406;23.500;2022-09-16T16:27:13;4.85;;;2.33;;
73593;SDS011;62064;53.406;23.500;2022-09-16T16:29:39;4.85;;;2.33;;
73593;SDS011;62064;53.406;23.500;2022-09-16T16:34:36;4.95;;;2.63;;
73593;SDS011;62064;53.406;23.500;2022-09-16T16:37:05;5.60;;;2.83;;
73593;SDS011;62064;53.406;23.500;2022-09-16T16:39:32;5.10;;;2.47;;
73593;SDS011;62064;53.406;23.500;2022-09-16T16:41:59;6.15;;;2.65;;
73593;SDS011;62064;53.406;23.500;2022-09-16T16:44:26;4.78;;;2.85;;
73593;SDS011;62064;53.406;23.500;2022-09-16T16:46:53;6.25;;;2.45;;
73593;SDS011;62064;53.406;23.500;2022-09-16T16:49:21;4.97;;;2.53;;
73593;SDS011;62064;53.406;23.500;2022-09-16T16:54:15;7.68;;;2.95;;
73593;SDS011;62064;53.406;23.500;2022-09-16T16:56:45;6.30;;;3.20;;
73593;SDS011;62064;53.406;23.500;2022-09-16T16:59:11;7.03;;;3.50;;
73593;SDS011;62064;53.406;23.500;2022-09-16T17:01:38;8.65;;;3.42;;
73593;SDS011;62064;53.406;23.500;2022-09-16T17:04:05;5.97;;;3.60;;
73593;SDS011;62064;53.406;23.500;2022-09-16T17:06:32;9.63;;;3.53;;
73593;SDS011;62064;53.406;23.500;2022-09-16T17:09:06;5.97;;;3.65;;
73593;SDS011;62064;53.406;23.500;2022-09-16T17:11:35;7.80;;;3.65;;
73593;SDS011;62064;53.406;23.500;2022-09-16T17:14:03;6.38;;;3.58;;
73593;SDS011;62064;53.406;23.500;2022-09-16T17:16:32;7.97;;;4.43;;
73593;SDS011;62064;53.406;23.500;2022-09-16T17:19:00;6.93;;;3.72;;
73593;SDS011;62064;53.406;23.500;2022-09-16T17:21:31;7.13;;;4.03;;
73593;SDS011;62064;53.406;23.500;2022-09-16T17:24:00;8.00;;;3.97;;
73593;SDS011;62064;53.406;23.500;2022-09-16T17:26:27;7.55;;;3.70;;
73593;SDS011;62064;53.406;23.500;2022-09-16T17:28:53;7.57;;;3.90;;
73593;SDS011;62064;53.406;23.500;2022-09-16T17:31:24;7.65;;;3.67;;
73593;SDS011;62064;53.406;23.500;2022-09-16T17:33:53;7.07;;;3.80;;
73593;SDS011;62064;53.406;23.500;2022-09-16T17:36:23;7.95;;;3.63;;
73593;SDS011;62064;53.406;23.500;2022-09-16T17:38:57;7.82;;;3.80;;
73593;SDS011;62064;53.406;23.500;2022-09-16T17:41:29;7.95;;;3.67;;
73593;SDS011;62064;53.406;23.500;2022-09-16T17:44:05;6.85;;;3.97;;
73593;SDS011;62064;53.406;23.500;2022-09-16T17:46:53;8.25;;;4.05;;
73593;SDS011;62064;53.406;23.500;2022-09-16T17:49:20;6.43;;;3.85;;
73593;SDS011;62064;53.406;23.500;2022-09-16T17:51:48;8.82;;;4.45;;
73593;SDS011;62064;53.406;23.500;2022-09-16T17:54:16;8.13;;;4.95;;
73593;SDS011;62064;53.406;23.500;2022-09-16T17:56:43;7.75;;;3.88;;
73593;SDS011;62064;53.406;23.500;2022-09-16T17:59:10;8.43;;;4.43;;
73593;SDS011;62064;53.406;23.500;2022-09-16T18:01:38;8.57;;;4.35;;
73593;SDS011;62064;53.406;23.500;2022-09-16T18:04:04;9.65;;;4.25;;
73593;SDS011;62064;53.406;23.500;2022-09-16T18:06:32;8.52;;;4.35;;
73593;SDS011;62064;53.406;23.500;2022-09-16T18:09:03;9.80;;;4.40;;
73593;SDS011;62064;53.406;23.500;2022-09-16T18:11:32;8.25;;;4.32;;
73593;SDS011;62064;53.406;23.500;2022-09-16T18:13:59;9.40;;;4.50;;
73593;SDS011;62064;53.406;23.500;2022-09-16T18:16:27;8.18;;;4.38;;
73593;SDS011;62064;53.406;23.500;2022-09-16T18:18:58;9.15;;;4.50;;
73593;SDS011;62064;53.406;23.500;2022-09-16T18:21:26;8.65;;;4.88;;
73593;SDS011;62064;53.406;23.500;2022-09-16T18:23:54;7.65;;;4.60;;
73593;SDS011;62064;53.406;23.500;2022-09-16T18:26:24;8.52;;;4.50;;